createdAt,value
2019-02-06T00:03:40.300Z,77.58
2019-02-06T00:06:08.504Z,77.42
2019-02-06T00:08:36.716Z,77.33
2019-02-06T00:11:04.923Z,77.40
2019-02-06T00:13:34.839Z,77.45
2019-02-06T00:16:03.037Z,77.36
2019-02-06T00:18:31.255Z,77.36
2019-02-06T00:21:20.621Z,77.25
2019-02-06T00:23:48.473Z,77.34
2019-02-06T00:26:18.394Z,77.33
2019-02-06T00:28:46.581Z,77.19
2019-02-06T00:31:14.801Z,77.19
2019-02-06T00:33:42.995Z,77.23
2019-02-06T00:36:11.190Z,77.15
2019-02-06T00:38:58.758Z,76.88
2019-02-06T00:41:26.959Z,77.05
2019-02-06T00:43:55.154Z,77.09
2019-02-06T00:46:23.343Z,76.94
2019-02-06T00:48:51.551Z,77.00
2019-02-06T00:51:19.747Z,76.76
2019-02-06T00:53:49.667Z,76.83
2019-02-06T00:56:17.863Z,76.83
2019-02-06T00:58:46.068Z,76.69
2019-02-06T01:01:33.620Z,76.81
2019-02-06T01:04:01.830Z,76.76
2019-02-06T01:06:30.025Z,76.65
2019-02-06T01:08:58.237Z,76.45
2019-02-06T01:11:26.431Z,76.40
2019-02-06T01:13:54.637Z,76.28
2019-02-06T01:16:22.837Z,76.35
2019-02-06T01:18:51.117Z,76.19
2019-02-06T01:21:19.308Z,76.30
2019-02-06T01:23:47.513Z,76.23
2019-02-06T01:26:15.704Z,76.21
2019-02-06T01:28:43.908Z,76.18
2019-02-06T01:34:01.000Z,76.25
2019-02-06T01:36:29.190Z,76.12
2019-02-06T01:39:37.499Z,75.97
2019-02-06T01:42:05.695Z,75.94
2019-02-06T01:44:53.020Z,75.67
2019-02-06T01:47:21.213Z,75.79
2019-02-06T01:49:49.415Z,75.70
2019-02-06T01:52:17.612Z,75.64
2019-02-06T01:54:45.822Z,75.77
2019-02-06T01:57:33.378Z,75.50
2019-02-06T02:00:01.587Z,75.48
2019-02-06T02:05:37.962Z,75.43
2019-02-06T02:08:06.375Z,75.05
2019-02-06T02:10:34.579Z,75.19
2019-02-06T02:13:02.773Z,75.29
2019-02-06T02:15:30.977Z,75.14
2019-02-06T02:20:46.417Z,74.85
2019-02-06T02:23:14.605Z,74.82
2019-02-06T02:25:42.806Z,74.86
2019-02-06T02:28:11.004Z,74.89
2019-02-06T02:30:58.563Z,74.66
2019-02-06T02:33:26.786Z,74.59
2019-02-06T02:35:54.959Z,74.50
2019-02-06T02:38:23.153Z,74.59
2019-02-06T02:40:53.077Z,74.48
2019-02-06T02:46:08.518Z,74.44
2019-02-06T02:48:36.715Z,74.48
2019-02-06T02:51:04.919Z,74.64
2019-02-06T02:56:23.932Z,74.68
2019-02-06T02:58:53.652Z,74.70
2019-02-06T03:06:36.388Z,74.75
2019-02-06T03:09:44.703Z,74.61
2019-02-06T03:12:12.894Z,74.57
2019-02-06T03:14:41.103Z,74.55
2019-02-06T03:17:09.293Z,74.70
2019-02-06T03:19:37.494Z,74.71
2019-02-06T03:22:05.689Z,74.74
2019-02-06T03:24:35.618Z,74.71
2019-02-06T03:30:31.225Z,74.82
2019-02-06T03:32:59.432Z,74.77
2019-02-06T03:35:27.633Z,74.70
2019-02-06T03:37:55.824Z,74.71
2019-02-06T03:40:24.036Z,74.74
2019-02-06T03:42:52.230Z,74.65
2019-02-06T03:45:20.435Z,74.60
2019-02-06T03:47:48.629Z,74.58
2019-02-06T03:50:37.826Z,74.46
2019-02-06T03:53:06.018Z,74.43
2019-02-06T03:55:34.247Z,74.54
2019-02-06T03:58:02.444Z,74.63
2019-02-06T04:00:30.654Z,74.58
2019-02-06T04:02:58.851Z,74.65
2019-02-06T04:05:27.055Z,74.68
2019-02-06T04:08:14.612Z,74.74
2019-02-06T04:10:42.816Z,74.78
2019-02-06T04:13:11.009Z,74.72
2019-02-06T04:15:39.213Z,74.76
2019-02-06T04:18:07.413Z,74.75
2019-02-06T04:20:35.615Z,74.71
2019-02-06T04:23:03.872Z,74.72
2019-02-06T04:25:33.741Z,74.74
2019-02-06T04:28:01.938Z,74.98
2019-02-06T04:30:30.141Z,75.09
2019-02-06T04:32:58.331Z,75.17
2019-02-06T04:35:26.643Z,75.19
2019-02-06T04:37:56.464Z,75.10
2019-02-06T04:40:26.365Z,75.11
2019-02-06T04:42:54.573Z,75.11
2019-02-06T04:45:22.777Z,75.14
2019-02-06T04:47:50.959Z,74.97
2019-02-06T04:50:19.152Z,75.12
2019-02-06T04:53:06.716Z,74.98
2019-02-06T04:55:34.907Z,75.02
2019-02-06T04:58:03.121Z,74.95
2019-02-06T05:00:31.309Z,75.04
2019-02-06T05:03:18.882Z,75.08
2019-02-06T05:05:47.066Z,75.15
2019-02-06T05:08:15.276Z,75.12
2019-02-06T05:10:43.466Z,75.09
2019-02-06T05:13:11.681Z,75.11
2019-02-06T05:15:39.858Z,75.17
2019-02-06T05:18:08.066Z,75.16
2019-02-06T05:23:50.465Z,75.36
2019-02-06T05:26:18.630Z,75.26
2019-02-06T05:28:46.832Z,75.27
2019-02-06T05:31:15.102Z,75.39
2019-02-06T05:33:43.301Z,75.44
2019-02-06T05:36:11.497Z,75.44
2019-02-06T05:38:59.061Z,75.57
2019-02-06T05:44:14.546Z,75.59
2019-02-06T05:46:42.696Z,75.54
2019-02-06T05:49:10.917Z,75.63
2019-02-06T05:51:39.113Z,75.61
2019-02-06T05:54:07.335Z,75.67
2019-02-06T05:56:37.243Z,75.74
2019-02-06T05:59:05.451Z,75.83
2019-02-06T06:01:33.639Z,75.86
2019-02-06T06:04:01.908Z,75.73
2019-02-06T06:06:30.045Z,75.71
2019-02-06T06:08:58.285Z,75.66
2019-02-06T06:11:26.476Z,75.42
2019-02-06T06:13:56.402Z,75.31
2019-02-06T06:16:24.648Z,75.28
2019-02-06T06:18:52.856Z,75.39
2019-02-06T06:21:21.039Z,75.33
2019-02-06T06:23:49.249Z,75.37
2019-02-06T06:26:17.488Z,75.13
2019-02-06T06:28:45.640Z,75.15
2019-02-06T06:31:15.556Z,75.21
2019-02-06T06:33:43.761Z,75.19
2019-02-06T06:36:11.953Z,75.14
2019-02-06T06:38:40.151Z,75.05
2019-02-06T06:41:08.356Z,75.02
2019-02-06T06:43:36.550Z,75.00
2019-02-06T06:46:23.877Z,75.03
2019-02-06T06:48:52.064Z,74.84
2019-02-06T06:51:20.267Z,74.81
2019-02-06T06:53:48.455Z,74.84
2019-02-06T06:56:16.680Z,74.69
2019-02-06T07:01:32.112Z,74.66
2019-02-06T07:04:00.298Z,74.71
2019-02-06T07:06:28.505Z,74.51
2019-02-06T07:08:56.707Z,74.50
2019-02-06T07:13:58.290Z,75.71
2019-02-06T07:16:38.488Z,74.59
2019-02-06T07:19:06.704Z,74.46
2019-02-06T07:21:34.908Z,74.34
2019-02-06T07:24:03.187Z,74.25
2019-02-06T07:26:31.392Z,74.52
2019-02-06T07:29:18.937Z,74.82
2019-02-06T07:31:47.141Z,74.11
2019-02-06T07:34:15.345Z,73.83
2019-02-06T07:36:43.557Z,74.30
2019-02-06T07:39:11.750Z,73.70
2019-02-06T07:41:39.953Z,74.35
2019-02-06T07:44:08.150Z,73.86
2019-02-06T07:46:36.352Z,74.74
2019-02-06T07:49:04.542Z,73.34
2019-02-06T07:51:32.750Z,73.04
2019-02-06T07:54:00.956Z,73.24
2019-02-06T07:59:02.501Z,72.30
2019-02-06T08:01:30.712Z,71.59
2019-02-06T08:03:58.904Z,73.27
2019-02-06T08:06:27.110Z,72.75
2019-02-06T08:08:55.309Z,71.55
2019-02-06T08:11:25.253Z,71.44
2019-02-06T08:13:53.451Z,70.86
2019-02-06T08:16:21.654Z,70.35
2019-02-06T08:18:49.845Z,69.84
2019-02-06T08:21:18.067Z,70.07
2019-02-06T08:23:46.252Z,70.08
2019-02-06T08:26:14.459Z,70.00
2019-02-06T08:28:42.668Z,69.58
2019-02-06T08:31:10.859Z,69.32
2019-02-06T08:33:39.061Z,69.29
2019-02-06T08:36:07.254Z,69.29
2019-02-06T08:38:55.668Z,68.93
2019-02-06T08:41:24.726Z,68.98
2019-02-06T08:43:52.944Z,68.54
2019-02-06T08:49:10.868Z,68.37
2019-02-06T08:51:38.309Z,68.08
2019-02-06T08:54:06.511Z,68.13
2019-02-06T08:56:34.702Z,67.87
2019-02-06T08:59:02.911Z,67.64
2019-02-06T09:01:31.109Z,67.20
2019-02-06T09:04:18.747Z,67.03
2019-02-06T09:06:46.940Z,67.24
2019-02-06T09:09:15.157Z,67.14
2019-02-06T09:11:43.358Z,66.93
2019-02-06T09:14:11.568Z,66.85
2019-02-06T09:16:59.123Z,66.33
2019-02-06T09:19:27.323Z,66.19
2019-02-06T09:21:55.522Z,66.23
2019-02-06T09:24:43.096Z,65.95
2019-02-06T09:27:11.294Z,65.83
2019-02-06T09:29:41.210Z,65.72
2019-02-06T09:32:09.406Z,65.59
2019-02-06T09:34:37.647Z,65.64
2019-02-06T09:37:05.837Z,65.48
2019-02-06T09:39:34.065Z,65.46
2019-02-06T09:42:02.239Z,64.99
2019-02-06T09:45:09.245Z,64.94
2019-02-06T09:47:37.430Z,64.21
2019-02-06T09:50:45.749Z,64.18
2019-02-06T09:53:13.979Z,64.07
2019-02-06T09:55:42.191Z,63.55
2019-02-06T10:03:23.561Z,63.23
2019-02-06T10:05:51.741Z,62.61
2019-02-06T10:08:19.989Z,63.19
2019-02-06T10:11:07.541Z,62.60
2019-02-06T10:13:35.748Z,62.87
2019-02-06T10:16:03.943Z,62.80
2019-02-06T10:18:32.166Z,62.42
2019-02-06T10:21:00.383Z,62.01
2019-02-06T10:23:28.603Z,62.45
2019-02-06T10:25:56.813Z,61.80
2019-02-06T10:31:13.986Z,61.54
2019-02-06T10:33:42.170Z,61.92
2019-02-06T10:36:10.372Z,61.96
2019-02-06T10:38:38.564Z,61.93
2019-02-06T10:41:06.758Z,61.76
2019-02-06T10:43:35.888Z,61.78
2019-02-06T10:46:04.867Z,61.54
2019-02-06T10:48:52.432Z,61.93
2019-02-06T10:51:22.360Z,62.49
2019-02-06T10:54:09.667Z,62.83
2019-02-06T10:56:57.225Z,63.33
2019-02-06T11:02:01.283Z,63.43
2019-02-06T11:04:29.507Z,63.96
2019-02-06T11:06:57.699Z,64.60
2019-02-06T11:09:25.894Z,65.38
2019-02-06T11:11:54.092Z,65.71
2019-02-06T11:14:24.002Z,66.20
2019-02-06T11:16:52.222Z,66.53
2019-02-06T11:19:20.401Z,66.77
2019-02-06T11:21:48.607Z,67.44
2019-02-06T11:24:16.796Z,67.62
2019-02-06T11:26:44.991Z,67.81
2019-02-06T11:29:13.176Z,67.86
2019-02-06T11:31:43.116Z,67.95
2019-02-06T11:34:11.307Z,68.61
2019-02-06T11:36:39.498Z,68.83
2019-02-06T11:39:57.637Z,69.27
2019-02-06T11:42:17.719Z,69.95
2019-02-06T11:44:45.911Z,70.01
2019-02-06T11:47:14.120Z,70.46
2019-02-06T11:52:31.181Z,71.81
2019-02-06T11:54:59.367Z,72.13
2019-02-06T12:00:48.847Z,71.96
2019-02-06T12:03:18.423Z,72.21
2019-02-06T12:05:46.607Z,72.39
2019-02-06T12:08:14.807Z,72.28
2019-02-06T12:10:42.985Z,72.84
2019-02-06T12:13:11.194Z,73.14
2019-02-06T12:15:39.372Z,73.23
2019-02-06T12:18:47.673Z,73.26
2019-02-06T12:23:44.824Z,74.10
2019-02-06T12:26:13.005Z,74.48
2019-02-06T12:29:21.317Z,74.59
2019-02-06T12:31:49.504Z,74.73
2019-02-06T12:34:17.700Z,75.25
2019-02-06T12:36:45.886Z,75.16
2019-02-06T12:39:14.110Z,75.32
2019-02-06T12:41:42.295Z,75.42
2019-02-06T12:44:10.484Z,75.53
2019-02-06T12:46:38.671Z,75.87
2019-02-06T12:49:06.870Z,75.76
2019-02-06T12:51:35.079Z,75.81
2019-02-06T12:54:03.304Z,75.95
2019-02-06T12:56:31.475Z,76.15
2019-02-06T12:58:59.686Z,76.16
2019-02-06T13:04:15.119Z,76.81
2019-02-06T13:06:43.322Z,76.80
2019-02-06T13:09:30.904Z,76.98
2019-02-06T13:11:59.095Z,77.30
2019-02-06T13:14:29.018Z,77.74
2019-02-06T13:16:57.204Z,77.99
2019-02-06T13:19:44.772Z,78.28
2019-02-06T13:22:12.957Z,78.52
2019-02-06T13:24:41.153Z,78.26
2019-02-06T13:27:09.344Z,78.27
2019-02-06T13:29:56.931Z,78.56
2019-02-06T13:32:25.109Z,78.86
2019-02-06T13:34:53.300Z,79.00
2019-02-06T13:37:21.485Z,79.09
2019-02-06T13:39:49.684Z,79.28
2019-02-06T13:42:17.882Z,79.35
2019-02-06T13:44:46.105Z,79.37
2019-02-06T13:47:14.286Z,79.37
2019-02-06T13:49:42.485Z,79.51
2019-02-06T13:54:57.935Z,79.39
2019-02-06T13:57:33.582Z,79.37
2019-02-06T13:59:56.098Z,79.36
2019-02-06T14:02:24.280Z,79.44
2019-02-06T14:04:52.476Z,79.58
2019-02-06T14:07:22.376Z,79.68
2019-02-06T14:10:30.737Z,79.60
2019-02-06T14:19:07.466Z,79.82
2019-02-06T14:21:35.654Z,79.89
2019-02-06T14:24:43.981Z,79.92
2019-02-06T14:30:44.209Z,79.83
2019-02-06T14:37:04.635Z,79.80
2019-02-06T14:40:12.963Z,79.84
2019-02-06T14:43:19.937Z,79.77
2019-02-06T14:46:26.936Z,79.78
2019-02-06T14:49:33.916Z,79.79
2019-02-06T14:52:42.496Z,79.81
2019-02-06T14:58:50.948Z,79.82
2019-02-06T15:01:57.942Z,79.82
2019-02-06T15:05:04.955Z,79.88
2019-02-06T15:08:13.264Z,80.31
2019-02-06T15:23:36.585Z,79.46
2019-02-06T15:26:35.738Z,80.07
2019-02-06T15:29:42.738Z,79.76
2019-02-06T15:32:50.019Z,79.75
2019-02-06T15:35:57.874Z,79.57
2019-02-06T15:39:05.145Z,79.59
2019-02-06T15:42:04.478Z,79.77
2019-02-06T15:54:19.173Z,80.01
2019-02-06T16:00:27.525Z,79.91
2019-02-06T16:03:36.243Z,80.14
2019-02-06T16:12:51.021Z,80.45
2019-02-06T16:15:57.989Z,80.25
2019-02-06T16:19:06.366Z,80.42
2019-02-06T16:25:27.272Z,80.44
2019-02-06T16:28:35.572Z,80.61
2019-02-06T16:34:56.035Z,80.83
2019-02-06T16:38:03.030Z,80.82
2019-02-06T16:41:10.023Z,80.81
2019-02-06T16:44:18.422Z,81.01
2019-02-06T16:47:19.407Z,81.13
2019-02-06T16:50:26.405Z,81.18
2019-02-06T16:53:33.408Z,81.38
2019-02-06T16:56:40.396Z,81.49
2019-02-06T16:59:48.703Z,81.52
2019-02-06T17:06:09.968Z,81.69
2019-02-06T17:09:16.985Z,81.66
2019-02-06T17:12:23.988Z,81.90
2019-02-06T17:15:32.334Z,81.99
2019-02-06T17:21:32.286Z,82.27
2019-02-06T17:24:39.282Z,82.37
2019-02-06T17:27:46.271Z,82.36
2019-02-06T17:30:54.951Z,82.48
2019-02-06T17:34:01.938Z,82.52
2019-02-06T17:37:08.940Z,82.52
2019-02-06T17:40:15.931Z,82.56
2019-02-06T17:43:22.919Z,82.67
2019-02-06T17:46:31.236Z,82.84
2019-02-06T17:49:38.211Z,82.80
2019-02-06T17:52:45.206Z,82.86
2019-02-06T17:55:32.839Z,82.75
2019-02-06T17:58:01.021Z,82.64
2019-02-06T18:01:09.384Z,82.88
2019-02-06T18:06:51.189Z,82.81
2019-02-06T18:09:19.377Z,82.96
2019-02-06T18:14:42.106Z,83.00
2019-02-06T18:17:10.307Z,83.14
2019-02-06T18:19:38.495Z,83.14
2019-02-06T18:22:46.803Z,83.01
2019-02-06T18:28:28.592Z,82.96
2019-02-06T18:30:56.788Z,82.78
2019-02-06T18:34:06.829Z,82.79
2019-02-06T18:36:35.029Z,82.93
2019-02-06T18:41:52.285Z,82.94
2019-02-06T18:44:20.474Z,82.96
2019-02-06T18:47:28.799Z,83.06
2019-02-06T18:49:56.989Z,83.01
2019-02-06T18:53:05.324Z,83.13
2019-02-06T18:55:35.312Z,82.97
2019-02-06T18:58:22.878Z,82.79
2019-02-06T19:00:51.095Z,82.89
2019-02-06T19:03:59.525Z,82.89
2019-02-06T19:06:27.670Z,83.05
2019-02-06T19:08:55.878Z,83.09
2019-02-06T19:11:24.655Z,83.07
2019-02-06T19:14:13.107Z,83.20
2019-02-06T19:16:41.384Z,82.93
2019-02-06T19:19:09.591Z,83.06
2019-02-06T19:21:37.803Z,83.18
2019-02-06T19:24:46.148Z,83.12
2019-02-06T19:27:14.644Z,83.04
2019-02-06T19:29:44.305Z,83.00
2019-02-06T19:32:12.538Z,83.01
2019-02-06T19:34:40.713Z,83.06
2019-02-06T19:37:08.910Z,82.96
2019-02-06T19:39:56.485Z,82.86
2019-02-06T19:42:24.698Z,82.72
2019-02-06T19:44:52.889Z,82.70
2019-02-06T19:47:40.204Z,82.91
2019-02-06T19:50:47.208Z,83.03
2019-02-06T19:53:15.501Z,82.98
2019-02-06T19:55:45.316Z,82.71
2019-02-06T19:58:13.546Z,82.73
2019-02-06T20:00:43.487Z,82.74
2019-02-06T20:03:11.687Z,82.65
2019-02-06T20:05:39.878Z,82.64
2019-02-06T20:08:08.105Z,82.55
2019-02-06T20:13:49.824Z,82.35
2019-02-06T20:16:18.037Z,82.37
2019-02-06T20:18:46.263Z,82.18
2019-02-06T20:21:14.450Z,82.29
2019-02-06T20:23:42.651Z,82.25
2019-02-06T20:26:10.840Z,82.11
2019-02-06T20:28:40.768Z,82.17
2019-02-06T20:31:08.959Z,82.17
2019-02-06T20:33:38.884Z,82.20
2019-02-06T20:36:07.072Z,82.17
2019-02-06T20:38:35.271Z,82.16
2019-02-06T20:41:03.464Z,82.04
2019-02-06T20:43:31.668Z,82.15
2019-02-06T20:46:01.603Z,82.26
2019-02-06T20:48:29.798Z,82.15
2019-02-06T20:50:57.988Z,82.09
2019-02-06T20:53:26.193Z,82.11
2019-02-06T20:55:54.383Z,82.12
2019-02-06T20:58:22.589Z,81.99
2019-02-06T21:01:09.894Z,81.94
2019-02-06T21:03:38.091Z,81.71
2019-02-06T21:09:19.810Z,81.83
2019-02-06T21:11:48.011Z,81.63
2019-02-06T21:14:16.209Z,81.68
2019-02-06T21:17:03.840Z,81.69
2019-02-06T21:19:33.754Z,81.91
2019-02-06T21:22:01.948Z,81.95
2019-02-06T21:24:30.168Z,81.97
2019-02-06T21:26:58.356Z,81.95
2019-02-06T21:29:26.559Z,81.98
2019-02-06T21:38:09.622Z,81.88
2019-02-06T21:41:17.938Z,81.88
2019-02-06T21:43:47.847Z,81.91
2019-02-06T21:46:16.053Z,81.86
2019-02-06T21:48:44.248Z,81.96
2019-02-06T21:51:12.448Z,82.05
2019-02-06T21:53:40.638Z,82.20
2019-02-06T21:56:08.840Z,82.13
2019-02-06T21:58:38.756Z,82.17
2019-02-06T22:01:06.968Z,82.21
2019-02-06T22:03:35.155Z,82.19
2019-02-06T22:06:43.470Z,82.25
2019-02-06T22:09:11.681Z,82.34
2019-02-06T22:11:39.909Z,82.18
2019-02-06T22:14:08.104Z,82.26
2019-02-06T22:16:36.306Z,82.35
2019-02-06T22:19:04.500Z,82.34
2019-02-06T22:21:34.448Z,82.33
2019-02-06T22:24:02.639Z,82.58
2019-02-06T22:26:30.851Z,82.41
2019-02-06T22:28:59.043Z,82.37
2019-02-06T22:31:27.248Z,82.62
2019-02-06T22:34:14.821Z,82.71
2019-02-06T22:36:43.022Z,82.69
2019-02-06T22:39:11.358Z,82.60
2019-02-06T22:41:41.179Z,82.58
2019-02-06T22:44:09.367Z,82.59
2019-02-06T22:46:37.571Z,82.65
2019-02-06T22:49:45.869Z,82.72
2019-02-06T22:52:14.093Z,82.62
2019-02-06T22:54:42.287Z,82.67
2019-02-06T22:57:12.234Z,82.59
2019-02-06T22:59:40.420Z,82.66
2019-02-06T23:02:08.623Z,82.80
2019-02-06T23:04:36.810Z,82.65
2019-02-06T23:07:07.172Z,82.53
2019-02-06T23:09:34.919Z,82.63
2019-02-06T23:12:03.122Z,82.61
2019-02-06T23:14:31.333Z,82.55
2019-02-06T23:16:59.535Z,82.32
2019-02-06T23:19:27.726Z,82.19
2019-02-06T23:21:55.926Z,82.25
2019-02-06T23:24:24.114Z,82.26
2019-02-06T23:26:52.314Z,82.19
2019-02-06T23:29:22.223Z,82.03
2019-02-06T23:31:50.422Z,81.94
2019-02-06T23:34:18.611Z,81.81
2019-02-06T23:36:46.820Z,81.69
2019-02-06T23:39:55.111Z,81.77
2019-02-06T23:42:23.340Z,81.77
2019-02-06T23:44:51.527Z,81.65
2019-02-06T23:47:19.727Z,81.62
2019-02-06T23:49:47.940Z,81.42
2019-02-06T23:52:17.862Z,81.46
2019-02-06T23:54:46.072Z,81.56
2019-02-06T23:57:14.270Z,81.64
2019-02-06T23:59:42.458Z,81.67
